Time;durP1;ratioP1;P1;durP2;ratioP2;P2;SDS_P1;SDS_P2;PMS_P1;PMS_P2;Temp;Humidity;BMP_temperature;BMP_pressure;BME280_temperature;BME280_humidity;BME280_pressure;Samples;Min_cycle;Max_cycle;Signal;HPM_P1;HPM_P2
2023/05/08 00:01:53;;;;;;;9.60;8.27;;;;;;;19.16;69.64;97700.72;5027338;28;20458;-69
2023/05/08 00:04:19;;;;;;;8.90;8.10;;;;;;;19.15;69.56;97699.06;5037501;28;20226;-71
2023/05/08 00:06:45;;;;;;;10.63;8.83;;;;;;;19.15;69.85;97699.06;5012149;28;20180;-69
2023/05/08 00:09:11;;;;;;;9.70;8.27;;;;;;;19.13;69.63;97702.97;5032134;28;20480;-70
2023/05/08 00:11:37;;;;;;;11.40;9.50;;;;;;;19.15;69.62;97698.28;5039949;28;21150;-71
2023/05/08 00:14:02;;;;;;;11.93;9.83;;;;;;;19.18;69.72;97704.00;5036143;28;20215;-69
2023/05/08 00:16:28;;;;;;;10.17;9.17;;;;;;;19.15;69.97;97698.28;5036635;28;20207;-70
2023/05/08 00:18:53;;;;;;;10.63;9.50;;;;;;;19.11;70.11;97691.69;5033019;28;20270;-70
2023/05/08 00:21:19;;;;;;;13.43;9.70;;;;;;;19.13;70.00;97700.31;5031368;28;20190;-69
2023/05/08 00:23:44;;;;;;;9.83;8.83;;;;;;;19.07;69.83;97701.09;5033153;28;20214;-69
2023/05/08 00:26:10;;;;;;;9.97;8.83;;;;;;;18.97;70.20;97706.75;5034140;28;20171;-71
2023/05/08 00:28:35;;;;;;;9.73;8.73;;;;;;;18.84;70.52;97704.75;5031793;28;20624;-70
2023/05/08 00:31:01;;;;;;;10.03;9.03;;;;;;;18.85;70.41;97698.44;5031385;28;20306;-70
2023/05/08 00:33:26;;;;;;;16.27;9.33;;;;;;;18.94;70.38;97709.78;5039865;28;20198;-70
2023/05/08 00:36:00;;;;;;;9.70;8.80;;;;;;;18.93;70.23;97700.13;5032201;28;20183;-70
2023/05/08 00:38:26;;;;;;;10.37;9.37;;;;;;;19.00;70.25;97701.84;5031303;28;20885;-68
2023/05/08 00:40:52;;;;;;;12.67;10.50;;;;;;;18.98;69.99;97708.38;5021505;28;20419;-71
2023/05/08 00:43:18;;;;;;;11.73;10.53;;;;;;;19.00;70.04;97707.16;5034269;28;20297;-70
2023/05/08 00:45:44;;;;;;;11.20;9.97;;;;;;;18.97;70.10;97706.75;5041943;28;20184;-72
2023/05/08 00:48:10;;;;;;;12.40;11.10;;;;;;;19.01;69.97;97710.66;5034382;28;20415;-70
2023/05/08 00:50:35;;;;;;;12.03;10.73;;;;;;;19.01;70.19;97714.13;5033542;28;21163;-71
2023/05/08 00:53:02;;;;;;;11.67;10.40;;;;;;;19.03;70.13;97709.44;5031683;28;20214;-69
2023/05/08 00:55:28;;;;;;;16.40;11.40;;;;;;;19.05;69.92;97713.75;5032764;28;20175;-70
2023/05/08 00:57:54;;;;;;;11.97;10.73;;;;;;;19.08;69.93;97718.69;5046952;28;20426;-70
2023/05/08 01:00:20;;;;;;;13.90;12.17;;;;;;;19.07;70.08;97723.16;5038843;28;20179;-70
2023/05/08 01:02:45;;;;;;;17.23;14.40;;;;;;;19.02;70.18;97715.78;5037226;28;20866;-70
2023/05/08 01:05:11;;;;;;;20.70;16.23;;;;;;;19.05;70.54;97713.75;5040445;28;20501;-71
2023/05/08 01:07:37;;;;;;;17.67;15.97;;;;;;;19.10;70.46;97719.28;5033743;28;20186;-69
2023/05/08 01:10:04;;;;;;;16.83;14.50;;;;;;;19.10;70.31;97725.44;5038161;28;21195;-70
2023/05/08 01:13:00;;;;;;;18.80;12.60;;;;;;;19.03;70.60;97727.19;5038813;28;20498;-70
2023/05/08 01:15:35;;;;;;;11.43;10.40;;;;;;;19.06;70.16;97718.03;5032279;28;20403;-69
2023/05/08 01:18:25;;;;;;;13.60;11.27;;;;;;;19.07;70.56;97725.81;5031516;28;20422;-71
2023/05/08 01:21:35;;;;;;;13.37;11.27;;;;;;;19.10;70.32;97728.09;5034785;28;20421;-69
2023/05/08 01:24:32;;;;;;;13.23;12.00;;;;;;;19.10;70.35;97728.09;5026288;28;20449;-70
2023/05/08 01:27:13;;;;;;;16.40;12.40;;;;;;;19.08;70.17;97723.97;5035167;28;21012;-70
2023/05/08 01:29:51;;;;;;;15.00;11.67;;;;;;;19.09;70.43;97729.09;5033440;28;20920;-71
2023/05/08 01:32:25;;;;;;;12.90;11.33;;;;;;;19.05;70.44;97725.19;5034706;28;21003;-70
2023/05/08 01:34:58;;;;;;;13.30;10.37;;;;;;;19.08;70.42;97724.78;5032123;28;20418;-70
2023/05/08 01:37:50;;;;;;;15.17;10.20;;;;;;;18.98;70.47;97729.63;5039342;28;20531;-70
2023/05/08 01:40:22;;;;;;;11.07;9.70;;;;;;;18.93;70.69;97727.53;5037858;28;20454;-69
2023/05/08 01:42:57;;;;;;;15.80;10.70;;;;;;;18.93;70.28;97737.31;5038410;28;20977;-68
2023/05/08 01:45:33;;;;;;;12.13;10.43;;;;;;;18.93;70.42;97732.00;5029536;28;20426;-70
2023/05/08 01:48:05;;;;;;;12.03;10.80;;;;;;;18.91;70.55;97734.88;5037250;28;20560;-70
2023/05/08 01:50:34;;;;;;;10.93;9.83;;;;;;;18.92;70.33;97735.66;5009551;28;20920;-69
2023/05/08 01:53:17;;;;;;;13.43;11.60;;;;;;;18.91;70.66;97739.34;5017453;28;20445;-70
2023/05/08 01:55:43;;;;;;;12.33;11.13;;;;;;;18.88;70.54;97736.06;5037781;28;20449;-69
2023/05/08 01:58:09;;;;;;;11.23;10.23;;;;;;;18.85;70.81;97736.44;5028706;28;20427;-70
2023/05/08 02:00:37;;;;;;;11.70;10.03;;;;;;;18.85;70.74;97744.41;5040636;28;20511;-70
2023/05/08 02:03:04;;;;;;;10.73;9.63;;;;;;;18.90;70.52;97737.72;5032000;28;20472;-69
2023/05/08 02:05:30;;;;;;;12.77;11.57;;;;;;;18.91;70.41;97736.69;5029697;28;20510;-68
2023/05/08 02:07:57;;;;;;;15.03;10.97;;;;;;;18.86;70.58;97735.44;5038740;28;20433;-70
2023/05/08 02:10:24;;;;;;;13.30;11.37;;;;;;;18.88;70.49;97732.59;5033623;28;20484;-69
2023/05/08 02:12:49;;;;;;;13.30;11.90;;;;;;;18.90;70.35;97737.72;5033059;28;21140;-70
2023/05/08 02:15:15;;;;;;;12.27;10.67;;;;;;;18.90;70.43;97737.72;5019804;28;20521;-70
2023/05/08 02:17:42;;;;;;;13.87;12.43;;;;;;;18.92;70.65;97727.69;4998186;28;20785;-70
2023/05/08 02:20:13;;;;;;;18.07;13.10;;;;;;;18.92;70.39;97738.31;4981239;28;20310;-69
2023/05/08 02:22:40;;;;;;;14.67;13.17;;;;;;;18.90;70.47;97737.72;5012296;28;20541;-70
2023/05/08 02:25:06;;;;;;;14.60;13.30;;;;;;;18.88;70.52;97738.72;5038563;28;20432;-71
2023/05/08 02:27:32;;;;;;;13.60;11.97;;;;;;;18.87;70.49;97738.91;5036370;28;21101;-71
2023/05/08 02:29:57;;;;;;;11.03;10.00;;;;;;;18.81;70.41;97745.00;5040138;28;20246;-70
2023/05/08 02:32:24;;;;;;;12.03;10.60;;;;;;;18.78;70.57;97743.53;5037831;28;20210;-70
2023/05/08 02:34:51;;;;;;;11.77;10.47;;;;;;;18.77;70.48;97749.88;5039531;28;20572;-71
2023/05/08 02:37:18;;;;;;;12.60;11.30;;;;;;;18.78;70.48;97746.19;5028939;28;20929;-70
2023/05/08 02:39:45;;;;;;;13.43;12.10;;;;;;;18.83;70.45;97746.44;5035806;28;20504;-71
2023/05/08 02:42:11;;;;;;;15.00;13.50;;;;;;;18.81;70.44;97750.31;5038722;28;20469;-69
2023/05/08 02:44:36;;;;;;;14.23;12.83;;;;;;;18.80;70.38;97754.78;5042678;28;20441;-70
2023/05/08 02:47:05;;;;;;;14.97;13.43;;;;;;;18.72;70.62;97754.94;5039540;28;20857;-70
2023/05/08 02:49:35;;;;;;;17.53;14.60;;;;;;;18.73;70.69;97746.75;5036448;28;20191;-71
2023/05/08 02:52:04;;;;;;;14.90;13.30;;;;;;;18.72;70.43;97745.13;5031967;28;20797;-70
2023/05/08 02:54:38;;;;;;;16.40;14.63;;;;;;;18.74;70.55;97750.25;5037841;28;20465;-68
2023/05/08 02:57:20;;;;;;;15.70;14.20;;;;;;;18.76;70.54;97747.41;5031209;28;20454;-68
2023/05/08 02:59:51;;;;;;;14.47;13.00;;;;;;;18.78;70.41;97756.81;5036573;28;20426;-69
2023/05/08 03:02:32;;;;;;;17.90;12.70;;;;;;;18.80;70.43;97752.13;5020547;28;20470;-68
2023/05/08 03:05:10;;;;;;;15.47;13.20;;;;;;;18.79;70.42;97747.03;5040878;28;20422;-69
2023/05/08 03:07:37;;;;;;;14.70;13.20;;;;;;;18.79;70.28;97742.53;5035486;28;20423;-69
2023/05/08 03:10:05;;;;;;;14.93;13.30;;;;;;;18.77;70.54;97741.06;5037642;28;20430;-68
2023/05/08 03:12:32;;;;;;;17.97;14.20;;;;;;;18.79;70.35;97747.03;5042415;28;20471;-68
2023/05/08 03:15:39;;;;;;;16.83;14.33;;;;;;;18.75;70.48;97749.25;5035074;28;20425;-68
2023/05/08 03:18:07;;;;;;;19.20;12.80;;;;;;;18.78;70.41;97740.06;5032435;28;20939;-69
2023/05/08 03:20:36;;;;;;;15.70;13.00;;;;;;;18.76;70.53;97740.28;5031745;28;20446;-68
2023/05/08 03:23:03;;;;;;;14.10;12.50;;;;;;;18.73;70.62;97745.97;5034317;28;21265;-69
2023/05/08 03:25:29;;;;;;;16.33;12.50;;;;;;;18.73;70.63;97743.31;5039326;28;20410;-68
2023/05/08 03:27:56;;;;;;;17.67;13.00;;;;;;;18.69;70.75;97739.38;5034604;28;20426;-67
2023/05/08 03:30:22;;;;;;;14.60;13.10;;;;;;;18.62;70.64;97744.63;5035696;28;20422;-68
2023/05/08 03:32:48;;;;;;;13.70;12.30;;;;;;;18.63;71.05;97742.81;5031069;28;20442;-69
2023/05/08 03:35:14;;;;;;;13.80;12.40;;;;;;;18.61;70.98;97742.19;5042694;28;20963;-69
2023/05/08 03:37:41;;;;;;;14.80;12.73;;;;;;;18.62;71.13;97749.13;5035031;28;20433;-69
2023/05/08 03:40:07;;;;;;;13.30;11.00;;;;;;;18.62;71.08;97747.28;5036402;28;20441;-69
2023/05/08 03:42:33;;;;;;;15.77;13.20;;;;;;;18.66;71.10;97750.38;5037075;28;20486;-69
2023/05/08 03:44:59;;;;;;;15.37;13.20;;;;;;;18.68;70.93;97751.00;5038248;28;20465;-67
2023/05/08 03:47:26;;;;;;;15.33;13.27;;;;;;;18.71;70.68;97751.44;5021569;28;20180;-69
2023/05/08 03:49:52;;;;;;;14.70;13.20;;;;;;;18.72;70.77;97747.78;5032355;28;20444;-70
2023/05/08 03:52:17;;;;;;;15.87;14.17;;;;;;;18.71;70.72;97750.63;5035839;28;20435;-71
2023/05/08 03:54:43;;;;;;;15.40;13.87;;;;;;;18.69;70.76;97753.50;5035987;28;20194;-69
2023/05/08 03:57:08;;;;;;;15.57;14.07;;;;;;;18.72;70.74;97746.97;5027420;28;20245;-69
2023/05/08 03:59:51;;;;;;;16.37;14.77;;;;;;;18.69;70.61;97750.84;5047738;28;20191;-70
2023/05/08 04:02:33;;;;;;;17.00;15.13;;;;;;;18.68;70.46;97762.47;5035610;28;20787;-69
2023/05/08 04:05:14;;;;;;;16.17;14.50;;;;;;;18.64;70.44;97750.56;5035425;28;20922;-69
2023/05/08 04:07:51;;;;;;;17.30;13.77;;;;;;;18.68;70.46;97753.66;5030751;28;20429;-69
2023/05/08 04:10:31;;;;;;;14.83;13.33;;;;;;;18.67;70.43;97754.66;5039068;28;20509;-70
2023/05/08 04:13:03;;;;;;;18.80;14.10;;;;;;;18.69;70.40;97757.97;5039693;28;20543;-70
2023/05/08 04:15:30;;;;;;;19.10;15.00;;;;;;;18.67;70.73;97757.31;5039730;28;20434;-69
2023/05/08 04:17:58;;;;;;;18.20;16.30;;;;;;;18.69;70.45;97768.56;5032794;28;20923;-69
2023/05/08 04:20:26;;;;;;;21.70;18.87;;;;;;;18.71;70.56;97766.56;5023874;28;21050;-69
2023/05/08 04:22:53;;;;;;;19.83;17.60;;;;;;;18.75;70.42;97772.31;5036939;28;20814;-69
2023/05/08 04:25:18;;;;;;;19.53;16.67;;;;;;;18.77;70.35;97768.47;5031917;28;20449;-70
2023/05/08 04:27:44;;;;;;;21.93;16.87;;;;;;;18.73;70.29;97769.84;5036089;28;20928;-68
2023/05/08 04:30:10;;;;;;;16.33;14.73;;;;;;;18.75;70.30;97778.44;5039845;28;20273;-68
2023/05/08 04:32:36;;;;;;;21.60;15.40;;;;;;;18.73;70.55;97777.81;4994979;28;20202;-69
2023/05/08 04:35:02;;;;;;;18.07;16.00;;;;;;;18.75;70.64;97778.44;5035961;28;20430;-69
2023/05/08 04:37:30;;;;;;;18.30;16.40;;;;;;;18.80;70.54;97780.53;5029532;28;20433;-69
2023/05/08 04:39:56;;;;;;;22.83;17.30;;;;;;;18.79;70.36;97781.53;5034500;28;20186;-69
2023/05/08 04:42:23;;;;;;;21.30;17.20;;;;;;;18.78;70.29;97780.69;5040986;28;20955;-68
2023/05/08 04:44:48;;;;;;;20.33;18.00;;;;;;;18.81;70.39;97774.22;5034928;28;20188;-70
2023/05/08 04:47:14;;;;;;;21.80;17.37;;;;;;;18.83;70.41;97785.47;5040101;28;20436;-69
2023/05/08 04:49:39;;;;;;;20.07;17.40;;;;;;;18.84;70.07;97787.06;5027064;28;20176;-69
2023/05/08 04:52:05;;;;;;;19.50;17.40;;;;;;;18.84;70.25;97782.59;5034519;28;20278;-69
2023/05/08 04:54:31;;;;;;;20.13;17.83;;;;;;;18.87;69.99;97792.84;5039774;28;20203;-69
2023/05/08 04:56:57;;;;;;;20.87;17.47;;;;;;;18.90;69.84;97790.84;5036535;28;20195;-69
2023/05/08 04:59:23;;;;;;;20.40;16.90;;;;;;;18.86;70.25;97788.56;5038941;28;20548;-69
2023/05/08 05:01:49;;;;;;;18.83;16.73;;;;;;;18.82;70.38;97789.94;5036397;28;20319;-69
2023/05/08 05:04:15;;;;;;;20.20;16.10;;;;;;;18.76;70.68;97788.06;5035453;28;20442;-68
2023/05/08 05:06:40;;;;;;;23.93;15.53;;;;;;;18.78;70.83;97788.66;5036986;28;20237;-69
2023/05/08 05:09:06;;;;;;;19.27;15.20;;;;;;;18.79;70.77;97795.63;5029808;28;20192;-69
2023/05/08 05:11:32;;;;;;;23.00;16.90;;;;;;;18.79;70.63;97800.13;5036315;28;20188;-67
2023/05/08 05:13:57;;;;;;;18.23;15.73;;;;;;;18.86;70.45;97806.31;5034061;28;20446;-68
2023/05/08 05:16:23;;;;;;;19.93;17.37;;;;;;;18.86;70.22;97806.31;5036669;28;20295;-68
2023/05/08 05:18:48;;;;;;;19.40;16.60;;;;;;;18.80;70.11;97810.53;5036324;28;20180;-69
2023/05/08 05:21:13;;;;;;;18.80;16.30;;;;;;;18.80;70.42;97807.88;5034038;28;20733;-69
2023/05/08 05:23:40;;;;;;;20.17;15.97;;;;;;;18.84;70.25;97803.84;5039596;28;20278;-70
2023/05/08 05:26:05;;;;;;;21.97;15.20;;;;;;;18.85;70.43;97808.16;5032888;28;20187;-68
2023/05/08 05:28:31;;;;;;;19.33;16.37;;;;;;;18.87;70.29;97808.78;5041629;28;20433;-68
2023/05/08 05:30:56;;;;;;;17.10;15.40;;;;;;;18.91;70.36;97816.34;5031735;28;20271;-70
2023/05/08 05:33:22;;;;;;;21.70;15.03;;;;;;;18.96;70.29;97811.31;5035902;28;20206;-69
2023/05/08 05:35:47;;;;;;;17.70;15.43;;;;;;;18.97;70.02;97818.28;5036764;28;20188;-67
2023/05/08 05:38:13;;;;;;;19.47;14.80;;;;;;;18.98;69.99;97819.94;5039391;28;20534;-69
2023/05/08 05:40:38;;;;;;;20.53;15.63;;;;;;;19.00;69.76;97815.25;5036462;28;20187;-68
2023/05/08 05:43:03;;;;;;;18.07;15.90;;;;;;;19.01;69.66;97814.25;5032196;28;20276;-71
2023/05/08 05:45:29;;;;;;;15.83;14.00;;;;;;;18.98;69.71;97818.09;5023375;28;20215;-70
2023/05/08 05:47:54;;;;;;;19.90;15.63;;;;;;;18.99;69.62;97816.25;5029834;28;20184;-72
2023/05/08 05:50:21;;;;;;;19.20;17.30;;;;;;;18.99;69.63;97821.56;5029525;28;20191;-71
2023/05/08 05:52:46;;;;;;;17.23;15.23;;;;;;;19.12;69.88;97820.84;5036722;28;20278;-71
2023/05/08 05:55:12;;;;;;;17.87;15.83;;;;;;;19.23;69.71;97820.31;5030345;28;20443;-70
2023/05/08 05:57:37;;;;;;;17.77;15.90;;;;;;;19.32;69.36;97821.84;5025272;28;20184;-70
2023/05/08 06:00:04;;;;;;;15.87;14.17;;;;;;;19.46;68.90;97821.94;5033494;28;20401;-70
2023/05/08 06:02:31;;;;;;;14.57;13.03;;;;;;;19.54;67.98;97813.81;5030223;28;20200;-72
2023/05/08 06:04:56;;;;;;;16.90;15.10;;;;;;;19.69;67.56;97816.34;5032101;28;20505;-72
2023/05/08 06:07:22;;;;;;;15.93;14.37;;;;;;;19.73;67.10;97812.28;5028005;28;21700;-72
2023/05/08 06:09:47;;;;;;;16.57;14.90;;;;;;;19.75;66.47;97826.19;5026849;28;20195;-70
2023/05/08 06:12:13;;;;;;;14.10;12.60;;;;;;;19.71;66.71;97819.63;5028606;28;20179;-72
2023/05/08 06:14:38;;;;;;;15.37;11.93;;;;;;;19.71;66.75;97816.97;5030600;28;20207;-72
2023/05/08 06:17:04;;;;;;;13.97;12.67;;;;;;;19.69;66.50;97816.34;5036901;28;20191;-70
2023/05/08 06:19:29;;;;;;;16.57;12.90;;;;;;;19.66;66.62;97816.72;5031958;28;20657;-70
2023/05/08 06:21:55;;;;;;;14.93;13.40;;;;;;;19.66;66.93;97822.03;5024404;28;20208;-72
2023/05/08 06:24:20;;;;;;;14.50;12.60;;;;;;;19.63;67.01;97822.44;5030139;28;20207;-71
2023/05/08 06:26:45;;;;;;;15.83;12.87;;;;;;;19.62;66.68;97823.47;5029552;28;20731;-71
2023/05/08 06:29:11;;;;;;;19.67;12.83;;;;;;;19.58;66.71;97820.38;5029561;28;20680;-72
2023/05/08 06:31:37;;;;;;;12.00;10.90;;;;;;;19.68;66.93;97825.31;5032625;28;20241;-71
2023/05/08 06:34:02;;;;;;;16.40;14.17;;;;;;;19.75;66.65;97826.19;5028324;28;20273;-71
2023/05/08 06:36:28;;;;;;;13.93;12.60;;;;;;;19.71;66.89;97827.59;5033858;28;20184;-72
2023/05/08 06:38:53;;;;;;;14.60;13.17;;;;;;;19.73;66.74;97822.91;5030250;28;20242;-70
2023/05/08 06:41:19;;;;;;;15.20;13.60;;;;;;;19.72;66.59;97833.75;5028880;28;20529;-70
2023/05/08 06:43:44;;;;;;;20.83;13.20;;;;;;;19.67;67.20;97838.81;5030807;28;20238;-72
2023/05/08 06:46:10;;;;;;;14.73;13.30;;;;;;;19.62;67.02;97836.75;5036326;28;20557;-69
2023/05/08 06:48:35;;;;;;;15.07;13.63;;;;;;;19.58;67.38;97839.00;5023285;28;20269;-68
2023/05/08 06:51:01;;;;;;;20.43;18.47;;;;;;;19.62;67.69;97834.91;5040980;28;20290;-70
2023/05/08 06:53:26;;;;;;;18.57;16.53;;;;;;;19.59;67.54;97837.13;5035271;28;20280;-71
2023/05/08 06:55:52;;;;;;;21.60;19.30;;;;;;;19.61;67.39;97827.13;5028336;28;20426;-72
2023/05/08 06:58:17;;;;;;;24.07;20.90;;;;;;;19.57;67.57;97833.84;5031543;28;20583;-72
2023/05/08 07:00:43;;;;;;;16.53;14.80;;;;;;;19.55;67.44;97835.88;5031345;28;20183;-73
2023/05/08 07:03:08;;;;;;;19.40;14.60;;;;;;;19.49;67.51;97842.78;5028056;28;20208;-71
2023/05/08 07:05:34;;;;;;;16.77;15.07;;;;;;;19.44;67.45;97846.03;5035352;28;20183;-70
2023/05/08 07:07:59;;;;;;;18.40;16.60;;;;;;;19.46;67.45;97844.00;5030684;28;20275;-69
2023/05/08 07:10:25;;;;;;;24.13;17.17;;;;;;;19.47;67.70;97847.47;5028922;28;20963;-70
2023/05/08 07:12:50;;;;;;;16.73;15.10;;;;;;;19.45;67.76;97838.91;5028097;28;20199;-70
2023/05/08 07:15:16;;;;;;;24.60;15.47;;;;;;;19.47;67.74;97845.66;4994320;28;20276;-71
2023/05/08 07:17:41;;;;;;;22.60;16.10;;;;;;;19.54;68.11;97839.53;5030571;28;20191;-72
2023/05/08 07:20:07;;;;;;;15.50;13.90;;;;;;;19.55;68.06;97841.19;5028589;28;20203;-71
2023/05/08 07:22:33;;;;;;;18.80;15.37;;;;;;;19.59;67.78;97842.47;5021258;28;20205;-70
2023/05/08 07:24:58;;;;;;;17.83;15.97;;;;;;;19.61;68.00;97845.75;5029136;28;20422;-70
2023/05/08 07:27:24;;;;;;;17.70;15.97;;;;;;;19.66;67.75;97845.97;5029250;28;20191;-70
2023/05/08 07:29:49;;;;;;;19.43;16.73;;;;;;;19.69;67.67;97847.44;5028608;28;20607;-70
2023/05/08 07:32:15;;;;;;;15.17;13.67;;;;;;;19.74;67.75;97839.69;5027985;28;20687;-71
2023/05/08 07:34:40;;;;;;;16.80;14.57;;;;;;;19.79;67.78;97839.91;5022789;28;20267;-72
2023/05/08 07:37:06;;;;;;;15.03;13.53;;;;;;;19.84;67.70;97841.97;5028775;28;20191;-72
2023/05/08 07:39:32;;;;;;;16.30;14.00;;;;;;;19.92;67.81;97847.16;5030595;28;20186;-72
2023/05/08 07:41:57;;;;;;;16.43;14.77;;;;;;;20.02;67.52;97850.31;5028746;28;20269;-72
2023/05/08 07:44:23;;;;;;;18.30;16.40;;;;;;;20.12;67.30;97846.47;5030866;28;20207;-71
2023/05/08 07:46:48;;;;;;;15.77;14.27;;;;;;;20.20;67.14;97848.94;5025759;28;20266;-71
2023/05/08 07:49:14;;;;;;;17.90;16.00;;;;;;;20.25;66.65;97847.31;5019475;28;20191;-70
2023/05/08 07:51:40;;;;;;;14.43;13.00;;;;;;;20.27;66.53;97847.13;5033292;28;20207;-70
2023/05/08 07:54:05;;;;;;;14.20;12.70;;;;;;;20.28;66.01;97854.09;5032853;28;20959;-69
2023/05/08 07:56:31;;;;;;;19.10;12.20;;;;;;;20.29;65.76;97858.38;5036550;28;20921;-71
2023/05/08 07:58:56;;;;;;;15.27;13.67;;;;;;;20.30;65.87;97851.22;5028803;28;20266;-69
2023/05/08 08:01:22;;;;;;;14.33;12.80;;;;;;;20.34;65.96;97861.28;5029873;28;20560;-69
2023/05/08 08:03:47;;;;;;;17.20;13.03;;;;;;;20.33;65.95;97854.31;5027781;28;20342;-68
2023/05/08 08:06:13;;;;;;;14.30;12.83;;;;;;;20.35;65.90;97852.28;5034053;28;20195;-68
2023/05/08 08:08:38;;;;;;;14.23;12.93;;;;;;;20.35;65.88;97856.78;5028534;28;21012;-70
2023/05/08 08:11:05;;;;;;;16.63;11.43;;;;;;;20.36;65.69;97861.91;5030739;28;20195;-69
2023/05/08 08:13:31;;;;;;;14.23;12.80;;;;;;;20.36;65.70;97859.25;5033079;28;20204;-68
2023/05/08 08:15:57;;;;;;;13.90;12.50;;;;;;;20.35;65.80;97857.59;5032242;28;20430;-68
2023/05/08 08:18:22;;;;;;;13.83;12.10;;;;;;;20.31;65.59;97861.66;5035174;28;20430;-68
2023/05/08 08:20:48;;;;;;;12.97;11.77;;;;;;;20.26;65.31;97864.13;5028105;28;20188;-71
2023/05/08 08:23:13;;;;;;;13.10;11.80;;;;;;;20.22;65.66;97865.53;5029714;28;20216;-68
2023/05/08 08:25:39;;;;;;;14.10;12.63;;;;;;;20.16;65.67;97869.81;5033026;28;20219;-68
2023/05/08 08:28:04;;;;;;;13.83;12.50;;;;;;;20.05;65.81;97868.50;5036670;28;20187;-68
2023/05/08 08:30:30;;;;;;;11.23;9.67;;;;;;;19.97;65.47;97875.84;5037497;28;20180;-69
2023/05/08 08:32:55;;;;;;;10.63;9.47;;;;;;;19.77;65.44;97871.19;5033917;28;20291;-68
2023/05/08 08:35:27;;;;;;;9.27;8.37;;;;;;;19.64;64.43;97885.25;5031955;28;20183;-70
2023/05/08 08:37:53;;;;;;;9.90;8.90;;;;;;;19.63;65.44;97878.28;5034115;28;20606;-70
2023/05/08 08:40:19;;;;;;;12.10;10.90;;;;;;;19.54;65.07;97879.41;5031684;28;20430;-68
2023/05/08 08:42:44;;;;;;;8.33;7.43;;;;;;;19.47;64.88;97879.38;5033688;28;20207;-68
2023/05/08 08:45:10;;;;;;;11.33;8.00;;;;;;;19.46;64.72;97880.41;5016257;28;20263;-71
2023/05/08 08:47:36;;;;;;;7.77;7.07;;;;;;;19.45;64.97;97878.78;5032817;28;20210;-68
2023/05/08 08:50:02;;;;;;;12.13;7.60;;;;;;;19.39;65.42;97885.69;5033288;28;20238;-72
2023/05/08 08:52:36;;;;;;;9.17;7.00;;;;;;;19.33;66.12;97881.13;5047686;28;21009;-70
2023/05/08 08:55:04;;;;;;;12.13;10.33;;;;;;;19.34;65.98;97882.75;5032599;28;20493;-69
2023/05/08 08:57:32;;;;;;;19.10;13.73;;;;;;;19.36;66.21;97890.53;5037966;28;20419;-70
2023/05/08 08:59:58;;;;;;;33.17;27.47;;;;;;;19.42;66.19;97884.47;5034571;28;20450;-70
2023/05/08 09:02:25;;;;;;;8.87;7.97;;;;;;;19.38;65.34;97889.34;5018570;28;20522;-69
2023/05/08 09:04:50;;;;;;;8.90;7.13;;;;;;;19.39;65.13;97895.47;5035983;28;20453;-67
2023/05/08 09:07:16;;;;;;;7.37;6.57;;;;;;;19.30;64.70;97889.47;5045040;28;20948;-68
2023/05/08 09:09:43;;;;;;;9.33;6.23;;;;;;;19.24;65.25;97891.06;5039151;28;20567;-68
2023/05/08 09:12:09;;;;;;;8.27;7.00;;;;;;;19.33;64.99;97892.59;5041937;28;20425;-69
2023/05/08 09:14:35;;;;;;;10.03;8.37;;;;;;;19.35;65.32;97895.03;5038821;28;20442;-69
2023/05/08 09:17:00;;;;;;;9.30;7.63;;;;;;;19.40;65.84;97887.31;5046225;28;20191;-70
2023/05/08 09:19:27;;;;;;;13.97;11.60;;;;;;;19.35;66.32;97892.38;5044126;28;20199;-70
2023/05/08 09:21:53;;;;;;;14.90;12.90;;;;;;;19.39;66.78;97888.34;5045926;28;20691;-69
2023/05/08 09:24:19;;;;;;;14.40;11.73;;;;;;;19.38;67.07;97889.34;5036268;28;20527;-69
2023/05/08 09:26:44;;;;;;;10.00;9.03;;;;;;;19.42;67.42;97889.78;5041429;28;20422;-70
2023/05/08 09:29:18;;;;;;;8.47;7.67;;;;;;;19.35;67.14;97884.41;5038576;28;20477;-69
2023/05/08 09:31:46;;;;;;;12.17;10.63;;;;;;;19.36;67.63;97891.38;5035416;28;20205;-70
2023/05/08 09:34:23;;;;;;;12.30;10.20;;;;;;;19.47;67.74;97888.19;5036923;28;20810;-71
2023/05/08 09:36:49;;;;;;;10.60;9.50;;;;;;;19.53;67.37;97888.44;5029799;28;20418;-71
2023/05/08 09:39:23;;;;;;;10.40;8.60;;;;;;;19.58;67.49;97893.97;5039591;28;20448;-70
2023/05/08 09:42:04;;;;;;;14.27;11.10;;;;;;;19.66;67.80;97896.47;5047586;28;20587;-70
2023/05/08 09:44:50;;;;;;;13.43;11.40;;;;;;;19.79;67.73;97896.56;5042806;28;20457;-69
2023/05/08 09:47:21;;;;;;;11.50;9.10;;;;;;;19.90;67.54;97884.59;5034531;28;20426;-70
2023/05/08 09:50:06;;;;;;;18.20;16.23;;;;;;;20.02;67.55;97889.38;5028733;28;20479;-70
2023/05/08 09:52:32;;;;;;;24.37;20.60;;;;;;;20.09;66.61;97896.38;5047104;28;20796;-68
2023/05/08 09:55:08;;;;;;;11.70;10.57;;;;;;;20.14;66.56;97892.31;5040338;28;20427;-71
2023/05/08 09:57:37;;;;;;;18.03;11.73;;;;;;;20.23;66.92;97888.47;5038440;28;20445;-70
2023/05/08 10:00:09;;;;;;;17.30;15.50;;;;;;;20.28;66.86;97894.03;5040944;28;20431;-71
2023/05/08 10:02:36;;;;;;;12.77;9.90;;;;;;;20.34;66.33;97889.75;5035895;28;20462;-70
2023/05/08 10:05:03;;;;;;;7.30;6.43;;;;;;;20.33;65.00;97891.56;5030810;28;20500;-72
2023/05/08 10:07:33;;;;;;;6.90;6.30;;;;;;;20.34;64.65;97895.06;5029076;28;20426;-71
2023/05/08 10:10:00;;;;;;;7.07;6.40;;;;;;;20.39;65.58;97892.63;5032152;28;20477;-71
2023/05/08 10:12:27;;;;;;;8.00;7.10;;;;;;;20.52;65.56;97892.66;5031655;28;20422;-70
2023/05/08 10:14:52;;;;;;;7.37;6.53;;;;;;;20.70;65.65;97885.97;5033084;28;20975;-70
2023/05/08 10:17:25;;;;;;;7.77;5.53;;;;;;;20.84;65.36;97898.34;5025206;28;20472;-70
2023/05/08 10:19:54;;;;;;;5.53;5.03;;;;;;;20.92;64.04;97896.50;5037555;28;20211;-70
2023/05/08 10:22:21;;;;;;;5.50;5.00;;;;;;;20.87;63.08;97892.59;5012970;28;20469;-69
2023/05/08 10:24:48;;;;;;;93.57;70.87;;;;;;;20.81;63.24;97895.22;5032290;28;21051;-71
2023/05/08 10:27:19;;;;;;;34.30;27.10;;;;;;;20.80;63.13;97896.25;5028772;28;20505;-69
2023/05/08 10:29:53;;;;;;;14.23;12.60;;;;;;;20.72;63.71;97903.38;5030893;28;20428;-72
2023/05/08 10:32:19;;;;;;;5.70;5.20;;;;;;;20.74;63.77;97899.69;5027852;28;20438;-70
2023/05/08 10:34:52;;;;;;;6.70;4.40;;;;;;;20.65;63.53;97891.91;5041942;28;20856;-71
2023/05/08 10:37:17;;;;;;;5.60;5.10;;;;;;;20.69;63.17;97887.81;5031141;28;20423;-70
2023/05/08 10:39:43;;;;;;;7.70;6.90;;;;;;;20.59;63.28;97894.56;5030283;28;20430;-71
2023/05/08 10:42:11;;;;;;;5.37;4.97;;;;;;;20.56;63.44;97895.75;5030070;28;20208;-71
2023/05/08 10:44:37;;;;;;;4.83;4.43;;;;;;;20.53;64.19;97891.66;5017467;28;20520;-71
2023/05/08 10:47:05;;;;;;;6.30;5.70;;;;;;;20.55;63.70;97894.09;5029406;28;20434;-72
2023/05/08 10:49:42;;;;;;;33.27;27.30;;;;;;;20.59;63.64;97887.38;5030651;28;20433;-71
2023/05/08 10:52:23;;;;;;;16.73;13.80;;;;;;;20.63;64.16;97885.97;5036087;28;20552;-70
2023/05/08 10:55:12;;;;;;;22.80;18.27;;;;;;;20.70;64.43;97885.97;5030257;28;20470;-72
2023/05/08 10:57:38;;;;;;;18.90;16.33;;;;;;;20.70;63.71;97889.44;5037479;28;20434;-70
2023/05/08 11:00:04;;;;;;;27.97;21.67;;;;;;;20.70;63.25;97880.66;5042389;28;20472;-71
2023/05/08 11:02:31;;;;;;;9.40;7.90;;;;;;;20.80;63.42;97880.28;5002593;28;20207;-71
2023/05/08 11:05:19;;;;;;;14.80;11.10;;;;;;;20.92;63.34;97883.19;5039240;28;20438;-73
2023/05/08 11:07:58;;;;;;;11.80;9.83;;;;;;;20.99;61.58;97884.84;5035491;28;20770;-71
2023/05/08 11:10:35;;;;;;;5.83;5.33;;;;;;;21.16;61.57;97884.44;5034475;28;20504;-71
2023/05/08 11:13:02;;;;;;;13.37;11.93;;;;;;;21.26;60.75;97879.53;5037847;28;20449;-73
2023/05/08 11:15:38;;;;;;;19.70;13.70;;;;;;;21.46;61.85;97887.53;5044491;28;20421;-71
2023/05/08 11:18:05;;;;;;;10.40;8.77;;;;;;;21.69;62.26;97880.97;5033608;28;20429;-72
2023/05/08 11:20:41;;;;;;;7.00;6.30;;;;;;;21.85;61.67;97869.03;5041092;28;20473;-72
2023/05/08 11:23:23;;;;;;;10.00;8.83;;;;;;;21.84;61.02;97882.59;5034891;28;20465;-71
2023/05/08 11:26:01;;;;;;;5.30;4.80;;;;;;;21.93;59.80;97876.00;5023524;28;20536;-72